createdAt,value
2022-09-16T00:01:37.574Z,15.02
2022-09-16T00:04:04.079Z,15.11
2022-09-16T00:06:31.078Z,14.92
2022-09-16T00:09:01.099Z,15.09
2022-09-16T00:11:27.940Z,15.30
2022-09-16T00:13:54.448Z,15.15
2022-09-16T00:16:26.113Z,14.98
2022-09-16T00:19:00.979Z,15.02
2022-09-16T00:21:29.048Z,14.97
2022-09-16T00:23:56.463Z,15.00
2022-09-16T00:26:23.408Z,14.84
2022-09-16T00:28:50.776Z,14.92
2022-09-16T00:31:17.779Z,15.03
2022-09-16T00:33:44.289Z,14.88
2022-09-16T00:36:16.617Z,14.82
2022-09-16T00:38:43.503Z,14.87
2022-09-16T00:41:15.951Z,14.90
2022-09-16T00:43:50.227Z,15.16
2022-09-16T00:46:17.828Z,15.03
2022-09-16T00:48:44.644Z,15.10
2022-09-16T00:51:12.790Z,15.09
2022-09-16T00:53:43.377Z,15.09
2022-09-16T00:56:13.092Z,14.99
2022-09-16T00:58:43.322Z,15.21
2022-09-16T01:01:09.896Z,15.29
2022-09-16T01:03:43.166Z,15.25
2022-09-16T01:06:10.649Z,15.23
2022-09-16T01:08:37.406Z,15.36
2022-09-16T01:11:03.826Z,15.21
2022-09-16T01:13:30.247Z,15.22
2022-09-16T01:16:06.025Z,15.26
2022-09-16T01:18:57.838Z,15.21
2022-09-16T01:21:56.835Z,15.03
2022-09-16T01:24:38.334Z,15.11
2022-09-16T01:27:10.636Z,15.16
2022-09-16T01:29:58.515Z,14.87
2022-09-16T01:32:33.626Z,14.95
2022-09-16T01:35:13.043Z,15.03
2022-09-16T01:38:20.182Z,15.03
2022-09-16T01:41:16.133Z,15.21
2022-09-16T01:43:54.785Z,15.19
2022-09-16T01:46:26.343Z,15.34
2022-09-16T01:49:01.433Z,15.19
2022-09-16T01:51:53.550Z,15.14
2022-09-16T01:54:27.052Z,15.12
2022-09-16T01:56:56.376Z,15.26
2022-09-16T01:59:32.706Z,14.98
2022-09-16T02:02:05.773Z,14.92
2022-09-16T02:04:44.396Z,14.97
2022-09-16T02:07:12.022Z,14.92
2022-09-16T02:09:41.501Z,15.00
2022-09-16T02:12:13.066Z,14.82
2022-09-16T02:14:42.930Z,14.85
2022-09-16T02:17:11.806Z,14.95
2022-09-16T02:19:58.099Z,14.94
2022-09-16T02:22:30.315Z,14.78
2022-09-16T02:24:59.177Z,14.80
2022-09-16T02:27:27.404Z,14.90
2022-09-16T02:29:56.548Z,15.01
2022-09-16T02:32:24.490Z,15.14
2022-09-16T02:34:51.940Z,15.13
2022-09-16T02:37:23.955Z,14.99
2022-09-16T02:39:55.122Z,14.99
2022-09-16T02:42:21.630Z,15.03
2022-09-16T02:44:48.077Z,15.07
2022-09-16T02:47:21.320Z,15.04
2022-09-16T02:49:51.417Z,14.97
2022-09-16T02:52:24.030Z,15.00
2022-09-16T02:55:01.424Z,14.99
2022-09-16T02:57:28.639Z,14.96
2022-09-16T02:59:55.234Z,14.97
2022-09-16T03:02:21.983Z,15.00
2022-09-16T03:04:48.605Z,14.97
2022-09-16T03:07:15.715Z,14.89
2022-09-16T03:09:44.325Z,14.67
2022-09-16T03:12:49.605Z,14.64
2022-09-16T03:15:34.530Z,14.52
2022-09-16T03:18:10.876Z,14.52
2022-09-16T03:20:55.269Z,14.44
2022-09-16T03:23:28.728Z,14.52
2022-09-16T03:26:12.031Z,14.45
2022-09-16T03:28:58.216Z,14.41
2022-09-16T03:31:30.393Z,14.44
2022-09-16T03:34:10.811Z,14.47
2022-09-16T03:36:42.408Z,14.47
2022-09-16T03:39:10.890Z,14.38
2022-09-16T03:41:38.198Z,14.48
2022-09-16T03:44:04.691Z,14.81
2022-09-16T03:46:31.771Z,14.77
2022-09-16T03:48:58.764Z,14.71
2022-09-16T03:51:25.608Z,14.81
2022-09-16T03:53:53.076Z,14.69
2022-09-16T03:56:20.133Z,14.92
2022-09-16T03:58:48.229Z,14.86
2022-09-16T04:01:15.153Z,14.76
2022-09-16T04:03:42.007Z,14.82
2022-09-16T04:06:09.514Z,14.80
2022-09-16T04:08:36.101Z,14.76
2022-09-16T04:11:08.026Z,14.82
2022-09-16T04:13:35.754Z,14.73
2022-09-16T04:16:04.049Z,14.73
2022-09-16T04:18:31.727Z,14.72
2022-09-16T04:20:59.742Z,14.70
2022-09-16T04:23:26.969Z,14.73
2022-09-16T04:25:58.234Z,14.77
2022-09-16T04:28:24.937Z,14.71
2022-09-16T04:30:51.976Z,14.80
2022-09-16T04:33:18.865Z,14.85
2022-09-16T04:35:45.392Z,14.83
2022-09-16T04:38:11.858Z,14.86
2022-09-16T04:40:40.154Z,14.79
2022-09-16T04:43:06.729Z,14.78
2022-09-16T04:45:33.336Z,14.66
2022-09-16T04:47:59.777Z,14.69
2022-09-16T04:50:26.887Z,14.67
2022-09-16T04:52:53.335Z,14.73
2022-09-16T04:55:22.968Z,14.81
2022-09-16T04:57:50.256Z,14.86
2022-09-16T05:00:17.045Z,14.90
2022-09-16T05:02:48.937Z,14.86
2022-09-16T05:05:17.204Z,14.82
2022-09-16T05:07:43.683Z,14.69
2022-09-16T05:10:12.256Z,14.49
2022-09-16T05:12:38.827Z,14.58
2022-09-16T05:15:07.818Z,14.47
2022-09-16T05:17:50.330Z,14.42
2022-09-16T05:20:17.863Z,14.32
2022-09-16T05:22:44.316Z,14.23
2022-09-16T05:25:10.882Z,14.22
2022-09-16T05:27:37.315Z,14.28
2022-09-16T05:30:04.222Z,14.34
2022-09-16T05:32:31.038Z,14.28
2022-09-16T05:34:57.506Z,14.34
2022-09-16T05:37:23.959Z,14.36
2022-09-16T05:39:50.487Z,14.40
2022-09-16T05:42:16.931Z,14.43
2022-09-16T05:44:43.478Z,14.49
2022-09-16T05:47:09.853Z,14.68
2022-09-16T05:49:37.094Z,14.70
2022-09-16T05:52:03.566Z,14.62
2022-09-16T05:54:31.613Z,14.65
2022-09-16T05:56:58.023Z,14.68
2022-09-16T05:59:24.542Z,14.57
2022-09-16T06:01:51.154Z,14.61
2022-09-16T06:04:17.746Z,14.76
2022-09-16T06:06:45.854Z,14.83
2022-09-16T06:09:15.036Z,15.05
2022-09-16T06:11:43.939Z,14.93
2022-09-16T06:14:11.404Z,15.14
2022-09-16T06:16:37.926Z,15.32
2022-09-16T06:19:06.720Z,15.56
2022-09-16T06:21:33.169Z,15.52
2022-09-16T06:23:59.930Z,15.33
2022-09-16T06:26:26.956Z,15.14
2022-09-16T06:28:53.741Z,15.36
2022-09-16T06:31:22.060Z,15.46
2022-09-16T06:33:50.357Z,15.48
2022-09-16T06:36:19.805Z,15.45
2022-09-16T06:38:46.798Z,15.38
2022-09-16T06:41:14.404Z,15.52
2022-09-16T06:43:41.261Z,15.44
2022-09-16T06:46:16.931Z,15.52
2022-09-16T06:48:45.366Z,15.59
2022-09-16T06:51:20.344Z,15.65
2022-09-16T06:53:46.992Z,15.59
2022-09-16T06:56:15.504Z,15.66
2022-09-16T06:58:45.341Z,15.75
2022-09-16T07:01:17.341Z,15.91
2022-09-16T07:03:49.160Z,16.20
2022-09-16T07:06:17.037Z,16.27
2022-09-16T07:08:44.139Z,16.41
2022-09-16T07:11:10.649Z,16.34
2022-09-16T07:13:37.215Z,16.56
2022-09-16T07:16:13.439Z,16.48
2022-09-16T07:18:40.467Z,16.63
2022-09-16T07:21:09.797Z,16.57
2022-09-16T07:23:37.364Z,16.59
2022-09-16T07:26:06.568Z,16.60
2022-09-16T07:28:33.731Z,16.87
2022-09-16T07:31:04.209Z,16.95
2022-09-16T07:33:33.170Z,17.02
2022-09-16T07:36:00.257Z,17.28
2022-09-16T07:38:27.390Z,17.26
2022-09-16T07:40:53.806Z,17.57
2022-09-16T07:43:20.276Z,17.52
2022-09-16T07:45:46.988Z,17.52
2022-09-16T07:48:13.405Z,17.68
2022-09-16T07:50:39.783Z,17.91
2022-09-16T07:53:06.612Z,17.98
2022-09-16T07:55:35.263Z,18.12
2022-09-16T07:58:01.734Z,18.20
2022-09-16T08:00:28.109Z,18.01
2022-09-16T08:02:57.251Z,18.35
2022-09-16T08:05:23.913Z,18.21
2022-09-16T08:07:50.445Z,18.26
2022-09-16T08:10:16.975Z,18.09
2022-09-16T08:12:46.994Z,18.35
2022-09-16T08:15:13.615Z,18.45
2022-09-16T08:17:40.252Z,18.64
2022-09-16T08:20:07.166Z,18.78
2022-09-16T08:22:35.640Z,18.83
2022-09-16T08:25:02.161Z,18.82
2022-09-16T08:27:28.592Z,19.07
2022-09-16T08:29:55.200Z,18.94
2022-09-16T08:32:21.580Z,18.85
2022-09-16T08:34:49.109Z,19.18
2022-09-16T08:37:15.516Z,19.32
2022-09-16T08:39:42.036Z,19.18
2022-09-16T08:42:28.677Z,19.39
2022-09-16T08:45:01.462Z,19.15
2022-09-16T08:47:35.552Z,19.01
2022-09-16T08:50:05.704Z,19.18
2022-09-16T08:52:39.477Z,19.54
2022-09-16T08:55:20.847Z,19.57
2022-09-16T08:57:56.672Z,19.94
2022-09-16T09:00:23.074Z,19.74
2022-09-16T09:02:59.165Z,19.84
2022-09-16T09:05:31.751Z,20.23
2022-09-16T09:08:07.299Z,20.26
2022-09-16T09:10:51.929Z,20.17
2022-09-16T09:13:40.264Z,20.12
2022-09-16T09:16:27.050Z,20.07
2022-09-16T09:19:00.426Z,20.02
2022-09-16T09:21:35.327Z,20.22
2022-09-16T09:24:07.855Z,20.13
2022-09-16T09:26:50.076Z,20.45
2022-09-16T09:29:36.774Z,20.50
2022-09-16T09:32:16.109Z,20.59
2022-09-16T09:35:02.872Z,20.85
2022-09-16T09:37:54.128Z,20.75
2022-09-16T09:40:48.399Z,20.05
2022-09-16T09:43:23.734Z,20.33
2022-09-16T09:45:58.467Z,21.05
2022-09-16T09:48:46.954Z,21.55
2022-09-16T09:51:22.868Z,21.42
2022-09-16T09:53:55.276Z,20.96
2022-09-16T09:56:31.642Z,21.20
2022-09-16T09:59:25.903Z,21.13
2022-09-16T10:01:56.777Z,20.97
2022-09-16T10:04:23.305Z,20.43
2022-09-16T10:06:51.750Z,19.77
2022-09-16T10:09:19.085Z,19.66
2022-09-16T10:11:55.542Z,19.52
2022-09-16T10:14:25.335Z,19.77
2022-09-16T10:16:52.842Z,19.86
2022-09-16T10:19:22.757Z,19.53
2022-09-16T10:22:07.899Z,19.78
2022-09-16T10:24:37.283Z,20.23
2022-09-16T10:27:27.016Z,20.76
2022-09-16T10:30:25.134Z,20.88
2022-09-16T10:33:05.882Z,20.77
2022-09-16T10:35:34.712Z,21.12
2022-09-16T10:38:06.845Z,21.75
2022-09-16T10:40:34.014Z,22.18
2022-09-16T10:43:07.554Z,22.63
2022-09-16T10:45:36.018Z,22.05
2022-09-16T10:48:12.647Z,21.55
2022-09-16T10:50:39.097Z,20.88
2022-09-16T10:53:21.874Z,20.45
2022-09-16T10:55:58.073Z,20.94
2022-09-16T10:58:24.607Z,21.12
2022-09-16T11:01:21.428Z,21.09
2022-09-16T11:04:00.243Z,20.96
2022-09-16T11:06:38.588Z,20.41
2022-09-16T11:09:19.784Z,20.69
2022-09-16T11:12:07.612Z,20.88
2022-09-16T11:14:50.201Z,21.06
2022-09-16T11:17:32.536Z,21.19
2022-09-16T11:20:57.744Z,21.55
2022-09-16T11:23:26.979Z,21.93
2022-09-16T11:26:01.200Z,21.77
2022-09-16T11:28:33.732Z,21.83
2022-09-16T11:31:13.005Z,21.27
2022-09-16T11:33:42.078Z,20.98
2022-09-16T11:36:27.166Z,20.98
2022-09-16T11:39:22.293Z,21.45
2022-09-16T11:42:10.863Z,21.22
2022-09-16T11:44:40.331Z,21.06
2022-09-16T11:47:38.489Z,20.66
2022-09-16T11:50:32.472Z,19.74
2022-09-16T11:53:18.992Z,19.21
2022-09-16T11:55:52.146Z,19.22
2022-09-16T11:58:36.659Z,19.11
2022-09-16T12:01:10.546Z,18.43
2022-09-16T12:03:54.878Z,18.53
2022-09-16T12:06:24.354Z,18.83
2022-09-16T12:09:09.093Z,19.33
2022-09-16T12:11:41.055Z,19.58
2022-09-16T12:14:15.034Z,20.12
2022-09-16T12:16:47.572Z,20.68
2022-09-16T12:19:22.126Z,20.59
2022-09-16T12:21:57.715Z,21.00
2022-09-16T12:24:33.185Z,21.15
2022-09-16T12:27:12.584Z,20.99
2022-09-16T12:29:48.704Z,20.49
2022-09-16T12:32:20.181Z,20.54
2022-09-16T12:34:51.093Z,20.23
2022-09-16T12:37:33.720Z,20.16
2022-09-16T12:40:01.349Z,19.88
2022-09-16T12:42:33.875Z,20.15
2022-09-16T12:45:20.878Z,19.98
2022-09-16T12:48:17.645Z,20.64
2022-09-16T12:50:56.491Z,20.87
2022-09-16T12:53:41.670Z,21.03
2022-09-16T12:56:28.741Z,21.60
2022-09-16T12:59:15.551Z,21.46
2022-09-16T13:01:48.527Z,20.87
2022-09-16T13:04:24.422Z,21.19
2022-09-16T13:06:52.766Z,21.61
2022-09-16T13:09:33.381Z,21.44
2022-09-16T13:12:36.722Z,21.30
2022-09-16T13:15:05.135Z,22.03
2022-09-16T13:17:34.129Z,22.14
2022-09-16T13:20:16.081Z,22.02
2022-09-16T13:23:03.658Z,21.29
2022-09-16T13:25:34.882Z,20.25
2022-09-16T13:28:03.803Z,19.55
2022-09-16T13:30:39.499Z,18.58
2022-09-16T13:33:08.866Z,18.21
2022-09-16T13:35:37.882Z,18.05
2022-09-16T13:38:16.552Z,18.29
2022-09-16T13:41:00.621Z,18.52
2022-09-16T13:43:42.243Z,18.57
2022-09-16T13:46:11.680Z,18.59
2022-09-16T13:48:42.762Z,18.37
2022-09-16T13:51:14.732Z,18.20
2022-09-16T13:53:52.939Z,18.18
2022-09-16T13:56:25.605Z,18.26
2022-09-16T13:59:02.167Z,18.15
2022-09-16T14:01:58.690Z,18.38
2022-09-16T14:04:47.095Z,18.16
2022-09-16T14:07:32.134Z,18.29
2022-09-16T14:09:58.526Z,18.21
2022-09-16T14:12:39.133Z,18.08
2022-09-16T14:15:06.489Z,18.30
2022-09-16T14:17:39.387Z,18.14
2022-09-16T14:20:06.650Z,18.02
2022-09-16T14:22:34.118Z,17.87
2022-09-16T14:25:06.388Z,17.98
2022-09-16T14:27:36.707Z,17.96
2022-09-16T14:30:21.525Z,17.73
2022-09-16T14:32:48.807Z,18.01
2022-09-16T14:35:26.890Z,17.92
2022-09-16T14:38:00.231Z,17.62
2022-09-16T14:40:28.189Z,17.74
2022-09-16T14:43:03.260Z,17.65
2022-09-16T14:45:30.853Z,17.54
2022-09-16T14:47:59.473Z,17.69
2022-09-16T14:50:31.894Z,17.78
2022-09-16T14:53:04.239Z,17.54
2022-09-16T14:55:37.605Z,17.39
2022-09-16T14:58:05.018Z,17.27
2022-09-16T15:00:38.454Z,17.11
2022-09-16T15:03:16.123Z,17.22
2022-09-16T15:05:45.771Z,17.05
2022-09-16T15:08:49.608Z,17.05
2022-09-16T15:12:46.718Z,17.02
2022-09-16T15:14:07.512Z,16.91
2022-09-16T15:16:40.413Z,16.60
2022-09-16T15:19:06.918Z,16.63
2022-09-16T15:21:36.746Z,16.64
2022-09-16T15:24:05.122Z,16.44
2022-09-16T15:26:38.703Z,16.32
2022-09-16T15:29:07.701Z,16.47
2022-09-16T15:31:36.892Z,16.34
2022-09-16T15:34:21.922Z,16.42
2022-09-16T15:36:50.884Z,16.29
2022-09-16T15:39:29.445Z,16.30
2022-09-16T15:42:24.016Z,16.24
2022-09-16T15:44:53.505Z,16.32
2022-09-16T15:47:29.854Z,16.35
2022-09-16T15:50:12.646Z,16.34
2022-09-16T15:52:48.056Z,16.23
2022-09-16T15:55:27.146Z,16.25
2022-09-16T15:58:00.331Z,16.19
2022-09-16T16:00:26.897Z,16.23
2022-09-16T16:02:56.721Z,16.16
2022-09-16T16:05:30.647Z,16.24
2022-09-16T16:08:04.074Z,16.16
2022-09-16T16:10:40.322Z,16.11
2022-09-16T16:13:06.739Z,16.28
2022-09-16T16:15:34.765Z,16.33
2022-09-16T16:18:04.131Z,16.21
2022-09-16T16:20:34.057Z,16.28
2022-09-16T16:23:01.188Z,16.25
2022-09-16T16:25:28.101Z,16.40
2022-09-16T16:27:54.548Z,16.39
2022-09-16T16:30:21.015Z,16.33
2022-09-16T16:32:47.490Z,15.99
2022-09-16T16:35:14.147Z,15.84
2022-09-16T16:37:46.381Z,15.97
2022-09-16T16:40:14.817Z,16.15
2022-09-16T16:42:43.299Z,16.17
2022-09-16T16:45:12.184Z,16.03
2022-09-16T16:47:39.689Z,16.34
2022-09-16T16:50:06.517Z,16.30
2022-09-16T16:52:32.926Z,16.30
2022-09-16T16:54:59.473Z,16.37
2022-09-16T16:57:26.022Z,16.12
2022-09-16T16:59:52.614Z,15.85
2022-09-16T17:02:19.040Z,15.92
2022-09-16T17:04:45.497Z,16.06
2022-09-16T17:07:25.617Z,15.84
2022-09-16T17:09:52.553Z,15.98
2022-09-16T17:12:18.980Z,16.16
2022-09-16T17:14:45.802Z,16.06
2022-09-16T17:17:12.181Z,16.11
2022-09-16T17:19:38.682Z,16.12
2022-09-16T17:22:05.607Z,15.73
2022-09-16T17:24:33.321Z,15.67
2022-09-16T17:27:00.288Z,15.56
2022-09-16T17:29:27.076Z,15.44
2022-09-16T17:31:55.555Z,15.48
2022-09-16T17:34:22.183Z,15.35
2022-09-16T17:36:48.668Z,15.42
2022-09-16T17:39:18.883Z,15.57
2022-09-16T17:41:47.603Z,15.74
2022-09-16T17:44:14.800Z,15.76
2022-09-16T17:46:42.602Z,15.84
2022-09-16T17:49:14.795Z,15.73
2022-09-16T17:51:41.205Z,15.71
2022-09-16T17:54:08.781Z,15.59
2022-09-16T17:56:35.811Z,15.69
2022-09-16T17:59:02.717Z,15.68
2022-09-16T18:01:30.887Z,15.67
2022-09-16T18:03:58.297Z,15.69
2022-09-16T18:06:30.895Z,15.58
2022-09-16T18:09:01.165Z,15.78
2022-09-16T18:11:27.646Z,15.80
2022-09-16T18:13:56.413Z,15.72
2022-09-16T18:16:23.969Z,15.91
2022-09-16T18:18:52.575Z,15.80
2022-09-16T18:21:19.874Z,15.86
2022-09-16T18:23:49.599Z,15.92
2022-09-16T18:26:16.845Z,15.86
2022-09-16T18:29:09.013Z,15.90
2022-09-16T18:31:35.566Z,15.93
2022-09-16T18:34:02.290Z,16.00
2022-09-16T18:36:30.462Z,16.23
2022-09-16T18:38:58.041Z,16.21
2022-09-16T18:41:35.212Z,16.13
2022-09-16T18:44:04.936Z,16.14
2022-09-16T18:46:33.455Z,16.16
2022-09-16T18:49:00.729Z,16.28
2022-09-16T18:51:31.575Z,16.34
2022-09-16T18:54:00.775Z,16.29
2022-09-16T18:56:29.135Z,16.22
2022-09-16T18:59:20.549Z,16.24
2022-09-16T19:01:48.932Z,16.17
2022-09-16T19:04:17.693Z,16.10
2022-09-16T19:06:46.506Z,16.10
2022-09-16T19:09:15.147Z,16.17
2022-09-16T19:11:41.976Z,16.28
2022-09-16T19:14:09.581Z,16.23
2022-09-16T19:16:36.925Z,16.28
2022-09-16T19:19:05.466Z,16.27
2022-09-16T19:21:32.175Z,16.37
2022-09-16T19:24:04.961Z,16.13
2022-09-16T19:26:37.098Z,16.09
2022-09-16T19:29:06.974Z,15.99
2022-09-16T19:31:35.379Z,16.02
2022-09-16T19:34:01.906Z,15.87
2022-09-16T19:36:30.234Z,16.03
2022-09-16T19:38:57.366Z,16.24
2022-09-16T19:41:26.422Z,16.14
2022-09-16T19:43:58.239Z,16.19
2022-09-16T19:46:25.102Z,16.33
2022-09-16T19:48:52.171Z,16.14
2022-09-16T19:51:22.542Z,16.34
2022-09-16T19:53:50.127Z,16.10
2022-09-16T19:56:21.606Z,16.27
2022-09-16T19:58:48.705Z,16.12
2022-09-16T20:01:25.736Z,16.29
2022-09-16T20:03:53.023Z,16.14
2022-09-16T20:06:25.336Z,16.22
2022-09-16T20:08:54.596Z,16.24
2022-09-16T20:11:23.153Z,16.17
2022-09-16T20:13:50.677Z,16.31
2022-09-16T20:16:18.463Z,15.98
2022-09-16T20:18:45.077Z,16.10
2022-09-16T20:21:13.638Z,16.12
2022-09-16T20:23:40.589Z,16.21
2022-09-16T20:26:08.707Z,16.30
2022-09-16T20:28:43.522Z,16.24
2022-09-16T20:31:11.865Z,16.23
2022-09-16T20:33:38.481Z,16.24
2022-09-16T20:36:06.493Z,16.29
2022-09-16T20:38:34.358Z,16.02
2022-09-16T20:41:07.032Z,16.35
2022-09-16T20:43:34.571Z,16.20
2022-09-16T20:46:05.916Z,16.33
2022-09-16T20:48:32.570Z,16.28
2022-09-16T20:51:10.659Z,16.24
2022-09-16T20:53:38.130Z,16.27
2022-09-16T20:56:07.049Z,16.18
2022-09-16T20:58:36.959Z,16.24
2022-09-16T21:01:08.778Z,16.17
2022-09-16T21:03:35.306Z,16.28
2022-09-16T21:06:22.839Z,16.24
2022-09-16T21:08:52.785Z,16.43
2022-09-16T21:11:19.800Z,16.31
2022-09-16T21:13:51.596Z,16.27
2022-09-16T21:16:18.075Z,16.38
2022-09-16T21:18:44.488Z,16.52
2022-09-16T21:21:19.547Z,16.47
2022-09-16T21:23:49.851Z,16.33
2022-09-16T21:26:18.559Z,16.47
2022-09-16T21:28:45.969Z,16.44
2022-09-16T21:31:14.363Z,16.34
2022-09-16T21:33:42.430Z,16.30
2022-09-16T21:36:11.407Z,16.33
2022-09-16T21:38:38.517Z,16.22
2022-09-16T21:41:07.545Z,16.30
2022-09-16T21:43:38.764Z,16.24
2022-09-16T21:46:06.587Z,16.14
2022-09-16T21:48:33.100Z,16.29
2022-09-16T21:51:05.510Z,16.25
2022-09-16T21:53:32.521Z,16.27
2022-09-16T21:56:02.827Z,16.47
2022-09-16T21:58:29.526Z,16.61
2022-09-16T22:01:11.369Z,16.62
2022-09-16T22:03:42.523Z,16.67
2022-09-16T22:06:12.321Z,16.55
2022-09-16T22:08:39.188Z,16.34
2022-09-16T22:11:08.065Z,16.39
2022-09-16T22:13:35.121Z,16.28
2022-09-16T22:16:02.606Z,16.29
2022-09-16T22:18:31.124Z,16.51
2022-09-16T22:21:15.668Z,16.26
2022-09-16T22:23:42.155Z,16.35
2022-09-16T22:26:14.042Z,16.44
2022-09-16T22:28:41.089Z,16.38
2022-09-16T22:31:10.371Z,16.25
2022-09-16T22:33:38.684Z,16.13
2022-09-16T22:36:07.166Z,16.35
2022-09-16T22:38:33.906Z,16.24
2022-09-16T22:41:10.343Z,16.35
2022-09-16T22:43:38.340Z,16.16
2022-09-16T22:46:05.756Z,16.18
2022-09-16T22:48:32.833Z,15.95
2022-09-16T22:51:00.143Z,15.94
2022-09-16T22:53:28.153Z,15.96
2022-09-16T22:56:03.189Z,15.92
2022-09-16T22:58:30.174Z,15.89
2022-09-16T23:01:04.809Z,15.72
2022-09-16T23:03:31.776Z,15.94
2022-09-16T23:06:00.802Z,15.79
2022-09-16T23:08:28.291Z,15.89
2022-09-16T23:10:56.115Z,15.81
2022-09-16T23:13:23.468Z,15.81
2022-09-16T23:15:53.801Z,16.08
2022-09-16T23:18:22.571Z,15.98
2022-09-16T23:20:59.756Z,15.97
2022-09-16T23:23:27.620Z,15.89
2022-09-16T23:25:54.155Z,15.87
2022-09-16T23:28:20.855Z,15.78
2022-09-16T23:30:47.426Z,15.77
2022-09-16T23:33:14.273Z,15.83
2022-09-16T23:35:50.598Z,15.84
2022-09-16T23:38:17.333Z,15.81
2022-09-16T23:40:44.105Z,15.77
2022-09-16T23:43:10.771Z,15.80
2022-09-16T23:45:37.592Z,15.87
2022-09-16T23:48:04.742Z,15.89
2022-09-16T23:50:31.542Z,15.83
2022-09-16T23:52:58.995Z,15.76
2022-09-16T23:55:25.818Z,15.76
2022-09-16T23:57:52.997Z,15.76
